sensor_id;sensor_type;location;lat;lon;timestamp;pressure;altitude;pressure_sealevel;temperature;humidity
80624;BME280;70269;44.768;9.600;2023-09-19T00:02:03;97206.09;;;18.82;91.23
80624;BME280;70269;44.768;9.600;2023-09-19T00:04:34;97199.78;;;18.81;90.26
80624;BME280;70269;44.768;9.600;2023-09-19T00:07:00;97193.75;;;18.84;90.84
80624;BME280;70269;44.768;9.600;2023-09-19T00:09:27;97193.19;;;18.77;90.95
80624;BME280;70269;44.768;9.600;2023-09-19T00:11:53;97190.19;;;18.69;90.94
80624;BME280;70269;44.768;9.600;2023-09-19T00:14:19;97197.31;;;18.70;90.52
80624;BME280;70269;44.768;9.600;2023-09-19T00:16:44;97195.91;;;18.62;90.80
80624;BME280;70269;44.768;9.600;2023-09-19T00:19:11;97195.22;;;18.25;92.31
80624;BME280;70269;44.768;9.600;2023-09-19T00:21:37;97197.41;;;18.28;91.51
80624;BME280;70269;44.768;9.600;2023-09-19T00:24:04;97200.97;;;18.23;91.61
80624;BME280;70269;44.768;9.600;2023-09-19T00:26:34;97195.47;;;18.18;93.66
80624;BME280;70269;44.768;9.600;2023-09-19T00:29:00;97198.78;;;18.25;93.30
80624;BME280;70269;44.768;9.600;2023-09-19T00:31:33;97204.19;;;18.15;93.85
80624;BME280;70269;44.768;9.600;2023-09-19T00:33:59;97202.00;;;18.07;94.28
80624;BME280;70269;44.768;9.600;2023-09-19T00:36:29;97208.81;;;18.04;94.04
80624;BME280;70269;44.768;9.600;2023-09-19T00:38:55;97192.97;;;18.06;94.07
80624;BME280;70269;44.768;9.600;2023-09-19T00:41:20;97186.13;;;18.09;95.05
80624;BME280;70269;44.768;9.600;2023-09-19T00:43:46;97191.09;;;18.22;94.09
80624;BME280;70269;44.768;9.600;2023-09-19T00:46:16;97176.34;;;18.23;93.79
80624;BME280;70269;44.768;9.600;2023-09-19T00:48:42;97169.78;;;18.14;92.32
80624;BME280;70269;44.768;9.600;2023-09-19T00:51:11;97173.25;;;17.99;92.38
80624;BME280;70269;44.768;9.600;2023-09-19T00:53:39;97179.53;;;17.90;91.78
80624;BME280;70269;44.768;9.600;2023-09-19T00:56:05;97179.22;;;17.86;93.69
80624;BME280;70269;44.768;9.600;2023-09-19T00:58:32;97171.25;;;17.79;94.07
80624;BME280;70269;44.768;9.600;2023-09-19T01:01:00;97167.41;;;17.75;94.23
80624;BME280;70269;44.768;9.600;2023-09-19T01:03:25;97169.53;;;17.63;93.74
80624;BME280;70269;44.768;9.600;2023-09-19T01:05:51;97167.28;;;17.55;94.98
80624;BME280;70269;44.768;9.600;2023-09-19T01:08:18;97157.72;;;17.53;94.66
80624;BME280;70269;44.768;9.600;2023-09-19T01:10:55;97152.78;;;17.55;94.73
80624;BME280;70269;44.768;9.600;2023-09-19T01:13:31;97146.47;;;17.49;95.26
80624;BME280;70269;44.768;9.600;2023-09-19T01:16:11;97140.44;;;17.47;95.01
80624;BME280;70269;44.768;9.600;2023-09-19T01:30:17;97112.44;;;17.62;89.04
80624;BME280;70269;44.768;9.600;2023-09-19T01:32:50;97112.78;;;17.75;86.97
80624;BME280;70269;44.768;9.600;2023-09-19T01:35:18;97113.91;;;17.85;84.94
80624;BME280;70269;44.768;9.600;2023-09-19T01:37:44;97113.97;;;17.95;84.63
80624;BME280;70269;44.768;9.600;2023-09-19T01:40:18;97115.13;;;18.14;82.30
80624;BME280;70269;44.768;9.600;2023-09-19T01:46:04;97105.00;;;18.19;81.58
80624;BME280;70269;44.768;9.600;2023-09-19T01:48:49;97120.88;;;18.28;81.17
80624;BME280;70269;44.768;9.600;2023-09-19T01:54:00;97124.72;;;18.52;78.65
80624;BME280;70269;44.768;9.600;2023-09-19T01:56:40;97129.44;;;18.72;76.65
80624;BME280;70269;44.768;9.600;2023-09-19T01:59:12;97127.56;;;18.87;76.78
80624;BME280;70269;44.768;9.600;2023-09-19T02:01:39;97128.91;;;18.85;77.20
80624;BME280;70269;44.768;9.600;2023-09-19T02:04:07;97126.72;;;18.82;77.07
80624;BME280;70269;44.768;9.600;2023-09-19T02:06:32;97126.16;;;18.80;77.25
80624;BME280;70269;44.768;9.600;2023-09-19T02:08:59;97125.34;;;18.74;77.47
80624;BME280;70269;44.768;9.600;2023-09-19T02:11:25;97124.53;;;18.69;77.05
80624;BME280;70269;44.768;9.600;2023-09-19T02:13:50;97115.75;;;18.67;76.92
80624;BME280;70269;44.768;9.600;2023-09-19T02:16:20;97133.25;;;18.66;77.63
80624;BME280;70269;44.768;9.600;2023-09-19T02:18:48;97122.88;;;18.57;77.63
80624;BME280;70269;44.768;9.600;2023-09-19T02:21:17;97126.38;;;18.53;77.65
80624;BME280;70269;44.768;9.600;2023-09-19T02:23:44;97131.59;;;18.54;77.47
80624;BME280;70269;44.768;9.600;2023-09-19T02:26:12;97127.47;;;18.52;77.43
80624;BME280;70269;44.768;9.600;2023-09-19T02:28:40;97125.06;;;18.61;76.58
80624;BME280;70269;44.768;9.600;2023-09-19T02:31:07;97135.19;;;18.60;76.35
80624;BME280;70269;44.768;9.600;2023-09-19T02:33:32;97134.59;;;18.53;76.85
80624;BME280;70269;44.768;9.600;2023-09-19T02:35:59;97149.34;;;18.37;77.26
80624;BME280;70269;44.768;9.600;2023-09-19T02:38:25;97154.81;;;18.37;77.15
80624;BME280;70269;44.768;9.600;2023-09-19T02:40:52;97161.34;;;18.31;77.48
80624;BME280;70269;44.768;9.600;2023-09-19T02:43:18;97153.13;;;18.26;78.10
80624;BME280;70269;44.768;9.600;2023-09-19T02:45:45;97164.91;;;18.26;78.04
80624;BME280;70269;44.768;9.600;2023-09-19T02:48:12;97162.13;;;18.21;78.58
80624;BME280;70269;44.768;9.600;2023-09-19T02:50:38;97163.44;;;18.08;79.62
80624;BME280;70269;44.768;9.600;2023-09-19T02:53:05;97162.09;;;18.11;79.50
80624;BME280;70269;44.768;9.600;2023-09-19T02:55:32;97170.53;;;18.04;79.86
80624;BME280;70269;44.768;9.600;2023-09-19T02:57:58;97175.13;;;17.89;80.93
80624;BME280;70269;44.768;9.600;2023-09-19T03:00:24;97172.91;;;17.86;81.06
80624;BME280;70269;44.768;9.600;2023-09-19T03:02:52;97176.44;;;17.76;81.36
80624;BME280;70269;44.768;9.600;2023-09-19T03:05:19;97175.53;;;17.65;81.90
80624;BME280;70269;44.768;9.600;2023-09-19T03:07:45;97176.66;;;17.64;82.52
80624;BME280;70269;44.768;9.600;2023-09-19T03:10:22;97174.44;;;17.61;82.29
80624;BME280;70269;44.768;9.600;2023-09-19T03:12:50;97166.44;;;17.55;83.42
80624;BME280;70269;44.768;9.600;2023-09-19T03:15:16;97166.41;;;17.50;83.80
80624;BME280;70269;44.768;9.600;2023-09-19T03:17:45;97177.84;;;17.47;83.82
80624;BME280;70269;44.768;9.600;2023-09-19T03:20:12;97180.03;;;17.39;84.13
80624;BME280;70269;44.768;9.600;2023-09-19T03:22:39;97178.66;;;17.42;86.18
80624;BME280;70269;44.768;9.600;2023-09-19T03:25:06;97180.50;;;17.68;85.45
80624;BME280;70269;44.768;9.600;2023-09-19T03:27:39;97181.34;;;17.74;83.89
80624;BME280;70269;44.768;9.600;2023-09-19T03:30:06;97185.34;;;17.61;84.46
80624;BME280;70269;44.768;9.600;2023-09-19T03:32:46;97187.34;;;17.34;85.71
80624;BME280;70269;44.768;9.600;2023-09-19T03:35:13;97185.69;;;17.28;85.96
80624;BME280;70269;44.768;9.600;2023-09-19T03:37:40;97191.56;;;17.15;87.44
80624;BME280;70269;44.768;9.600;2023-09-19T03:40:08;97186.63;;;17.12;87.68
80624;BME280;70269;44.768;9.600;2023-09-19T03:42:38;97180.09;;;17.13;87.80
80624;BME280;70269;44.768;9.600;2023-09-19T03:45:04;97187.88;;;16.99;88.90
80624;BME280;70269;44.768;9.600;2023-09-19T03:47:32;97188.38;;;16.91;90.01
80624;BME280;70269;44.768;9.600;2023-09-19T03:50:00;97180.09;;;16.81;90.80
80624;BME280;70269;44.768;9.600;2023-09-19T03:52:27;97171.56;;;16.72;91.53
80624;BME280;70269;44.768;9.600;2023-09-19T03:54:52;97171.56;;;16.72;90.35
80624;BME280;70269;44.768;9.600;2023-09-19T03:57:18;97173.31;;;16.83;88.55
80624;BME280;70269;44.768;9.600;2023-09-19T03:59:46;97176.31;;;16.87;88.42
80624;BME280;70269;44.768;9.600;2023-09-19T04:02:13;97172.47;;;16.83;88.73
80624;BME280;70269;44.768;9.600;2023-09-19T04:04:49;97179.13;;;16.65;87.94
80624;BME280;70269;44.768;9.600;2023-09-19T04:07:15;97169.47;;;16.57;88.18
80624;BME280;70269;44.768;9.600;2023-09-19T04:09:41;97171.53;;;16.45;88.37
80624;BME280;70269;44.768;9.600;2023-09-19T04:12:07;97171.69;;;16.34;88.88
80624;BME280;70269;44.768;9.600;2023-09-19T04:14:34;97174.88;;;16.26;88.96
80624;BME280;70269;44.768;9.600;2023-09-19T04:16:59;97184.59;;;16.16;89.36
80624;BME280;70269;44.768;9.600;2023-09-19T04:19:26;97178.19;;;16.06;89.84
80624;BME280;70269;44.768;9.600;2023-09-19T04:21:51;97187.38;;;16.00;90.09
80624;BME280;70269;44.768;9.600;2023-09-19T04:24:17;97187.88;;;15.97;90.49
80624;BME280;70269;44.768;9.600;2023-09-19T04:26:45;97194.34;;;15.91;90.99
80624;BME280;70269;44.768;9.600;2023-09-19T04:29:10;97191.00;;;15.84;91.01
80624;BME280;70269;44.768;9.600;2023-09-19T04:31:36;97187.63;;;15.76;91.22
80624;BME280;70269;44.768;9.600;2023-09-19T04:34:03;97187.56;;;15.71;91.62
80624;BME280;70269;44.768;9.600;2023-09-19T04:36:29;97181.09;;;15.77;91.66
80624;BME280;70269;44.768;9.600;2023-09-19T04:38:55;97192.50;;;15.74;91.82
80624;BME280;70269;44.768;9.600;2023-09-19T04:41:20;97187.56;;;15.71;92.18
80624;BME280;70269;44.768;9.600;2023-09-19T04:43:47;97186.09;;;15.64;92.43
80624;BME280;70269;44.768;9.600;2023-09-19T04:46:15;97185.34;;;15.52;91.97
80624;BME280;70269;44.768;9.600;2023-09-19T04:48:40;97193.44;;;15.47;91.93
80624;BME280;70269;44.768;9.600;2023-09-19T04:51:06;97201.84;;;15.45;91.77
80624;BME280;70269;44.768;9.600;2023-09-19T04:53:34;97208.38;;;15.44;91.56
80624;BME280;70269;44.768;9.600;2023-09-19T04:56:00;97199.53;;;15.37;92.31
80624;BME280;70269;44.768;9.600;2023-09-19T04:58:25;97199.75;;;15.30;92.86
80624;BME280;70269;44.768;9.600;2023-09-19T05:00:51;97213.84;;;15.27;92.98
80624;BME280;70269;44.768;9.600;2023-09-19T05:03:18;97206.97;;;15.25;93.69
80624;BME280;70269;44.768;9.600;2023-09-19T05:05:45;97219.78;;;15.24;94.07
80624;BME280;70269;44.768;9.600;2023-09-19T05:08:10;97223.56;;;15.23;93.43
80624;BME280;70269;44.768;9.600;2023-09-19T05:10:36;97229.50;;;15.20;93.55
80624;BME280;70269;44.768;9.600;2023-09-19T05:13:04;97232.72;;;15.17;92.99
80624;BME280;70269;44.768;9.600;2023-09-19T05:15:30;97227.84;;;15.19;93.09
80624;BME280;70269;44.768;9.600;2023-09-19T05:17:56;97241.63;;;15.29;93.00
80624;BME280;70269;44.768;9.600;2023-09-19T05:20:22;97247.63;;;15.48;92.59
80624;BME280;70269;44.768;9.600;2023-09-19T05:23:00;97252.25;;;15.48;92.18
80624;BME280;70269;44.768;9.600;2023-09-19T05:25:31;97250.78;;;15.40;91.80
80624;BME280;70269;44.768;9.600;2023-09-19T05:27:58;97252.50;;;15.46;92.45
80624;BME280;70269;44.768;9.600;2023-09-19T05:30:27;97262.81;;;15.44;92.34
80624;BME280;70269;44.768;9.600;2023-09-19T05:32:53;97259.91;;;15.51;92.18
80624;BME280;70269;44.768;9.600;2023-09-19T05:35:20;97266.41;;;15.50;92.32
80624;BME280;70269;44.768;9.600;2023-09-19T05:37:47;97268.69;;;15.53;92.35
80624;BME280;70269;44.768;9.600;2023-09-19T05:40:19;97265.97;;;15.53;92.33
80624;BME280;70269;44.768;9.600;2023-09-19T05:42:45;97273.63;;;15.56;92.12
80624;BME280;70269;44.768;9.600;2023-09-19T05:45:12;97274.03;;;15.48;92.01
80624;BME280;70269;44.768;9.600;2023-09-19T05:47:42;97280.78;;;15.62;91.33
80624;BME280;70269;44.768;9.600;2023-09-19T05:50:11;97281.97;;;15.66;91.50
80624;BME280;70269;44.768;9.600;2023-09-19T05:52:38;97276.59;;;15.71;91.11
80624;BME280;70269;44.768;9.600;2023-09-19T05:55:07;97284.34;;;15.79;91.17
80624;BME280;70269;44.768;9.600;2023-09-19T05:57:37;97282.16;;;15.98;90.23
80624;BME280;70269;44.768;9.600;2023-09-19T06:00:08;97283.44;;;16.34;89.68
80624;BME280;70269;44.768;9.600;2023-09-19T06:02:39;97283.63;;;16.97;87.38
80624;BME280;70269;44.768;9.600;2023-09-19T06:05:06;97288.00;;;17.57;85.76
80624;BME280;70269;44.768;9.600;2023-09-19T06:07:36;97285.78;;;17.91;85.34
80624;BME280;70269;44.768;9.600;2023-09-19T06:10:03;97287.47;;;18.44;81.30
80624;BME280;70269;44.768;9.600;2023-09-19T06:12:31;97287.13;;;18.36;79.69
80624;BME280;70269;44.768;9.600;2023-09-19T06:14:59;97285.88;;;18.58;79.04
80624;BME280;70269;44.768;9.600;2023-09-19T06:17:25;97282.72;;;19.07;76.47
80624;BME280;70269;44.768;9.600;2023-09-19T06:19:53;97289.06;;;19.23;77.19
80624;BME280;70269;44.768;9.600;2023-09-19T06:22:19;97284.81;;;18.59;77.82
80624;BME280;70269;44.768;9.600;2023-09-19T06:24:45;97283.22;;;18.89;79.48
80624;BME280;70269;44.768;9.600;2023-09-19T06:27:12;97280.78;;;18.87;77.79
80624;BME280;70269;44.768;9.600;2023-09-19T06:29:38;97284.41;;;19.13;77.12
80624;BME280;70269;44.768;9.600;2023-09-19T06:32:08;97287.19;;;19.59;76.35
80624;BME280;70269;44.768;9.600;2023-09-19T06:34:37;97285.81;;;19.71;73.42
80624;BME280;70269;44.768;9.600;2023-09-19T06:37:08;97278.63;;;20.01;73.20
80624;BME280;70269;44.768;9.600;2023-09-19T06:39:34;97282.78;;;19.93;70.28
80624;BME280;70269;44.768;9.600;2023-09-19T06:41:59;97280.56;;;19.90;71.11
80624;BME280;70269;44.768;9.600;2023-09-19T06:44:27;97268.84;;;19.59;70.22
80624;BME280;70269;44.768;9.600;2023-09-19T06:46:53;97271.81;;;19.27;74.45
80624;BME280;70269;44.768;9.600;2023-09-19T06:49:20;97272.34;;;19.04;74.28
80624;BME280;70269;44.768;9.600;2023-09-19T06:51:45;97272.91;;;19.16;74.41
80624;BME280;70269;44.768;9.600;2023-09-19T06:54:11;97280.91;;;19.48;75.13
80624;BME280;70269;44.768;9.600;2023-09-19T06:56:36;97280.88;;;19.53;75.62
80624;BME280;70269;44.768;9.600;2023-09-19T06:59:02;97272.94;;;19.52;74.06
80624;BME280;70269;44.768;9.600;2023-09-19T07:01:29;97274.59;;;19.68;74.55
80624;BME280;70269;44.768;9.600;2023-09-19T07:03:54;97271.84;;;19.73;72.45
80624;BME280;70269;44.768;9.600;2023-09-19T07:06:20;97277.84;;;19.85;70.64
80624;BME280;70269;44.768;9.600;2023-09-19T07:08:46;97277.50;;;20.17;71.29
80624;BME280;70269;44.768;9.600;2023-09-19T07:11:11;97272.84;;;20.12;70.22
80624;BME280;70269;44.768;9.600;2023-09-19T07:13:38;97273.09;;;20.21;68.67
80624;BME280;70269;44.768;9.600;2023-09-19T07:16:04;97279.47;;;19.96;70.20
80624;BME280;70269;44.768;9.600;2023-09-19T07:18:30;97274.31;;;19.64;70.94
80624;BME280;70269;44.768;9.600;2023-09-19T07:20:57;97275.09;;;19.95;70.30
80624;BME280;70269;44.768;9.600;2023-09-19T07:23:26;97280.31;;;19.92;71.26
80624;BME280;70269;44.768;9.600;2023-09-19T07:25:52;97274.19;;;20.20;69.64
80624;BME280;70269;44.768;9.600;2023-09-19T07:28:22;97280.41;;;20.56;69.97
80624;BME280;70269;44.768;9.600;2023-09-19T07:30:48;97278.00;;;20.39;69.37
80624;BME280;70269;44.768;9.600;2023-09-19T07:33:13;97277.53;;;20.12;69.41
80624;BME280;70269;44.768;9.600;2023-09-19T07:35:40;97282.09;;;20.47;70.10
80624;BME280;70269;44.768;9.600;2023-09-19T07:38:06;97281.63;;;20.89;69.62
80624;BME280;70269;44.768;9.600;2023-09-19T07:40:32;97283.91;;;21.26;67.06
80624;BME280;70269;44.768;9.600;2023-09-19T07:42:58;97278.63;;;21.34;67.30
80624;BME280;70269;44.768;9.600;2023-09-19T07:45:28;97281.75;;;21.18;68.15
80624;BME280;70269;44.768;9.600;2023-09-19T07:47:55;97287.09;;;21.38;66.26
80624;BME280;70269;44.768;9.600;2023-09-19T07:50:21;97275.19;;;21.09;68.01
80624;BME280;70269;44.768;9.600;2023-09-19T07:52:48;97281.41;;;21.63;65.89
80624;BME280;70269;44.768;9.600;2023-09-19T07:55:16;97280.69;;;21.82;64.44
80624;BME280;70269;44.768;9.600;2023-09-19T08:00:09;97273.94;;;22.03;64.76
80624;BME280;70269;44.768;9.600;2023-09-19T08:02:39;97272.94;;;22.41;62.31
80624;BME280;70269;44.768;9.600;2023-09-19T08:05:06;97270.28;;;22.79;60.55
80624;BME280;70269;44.768;9.600;2023-09-19T08:07:39;97274.50;;;23.32;60.19
80624;BME280;70269;44.768;9.600;2023-09-19T08:10:05;97285.56;;;22.90;62.36
80624;BME280;70269;44.768;9.600;2023-09-19T08:12:37;97273.69;;;23.13;62.16
80624;BME280;70269;44.768;9.600;2023-09-19T08:15:03;97270.31;;;23.86;57.82
80624;BME280;70269;44.768;9.600;2023-09-19T08:17:34;97266.75;;;24.32;56.78
80624;BME280;70269;44.768;9.600;2023-09-19T08:20:00;97273.06;;;24.87;54.24
80624;BME280;70269;44.768;9.600;2023-09-19T08:22:26;97271.81;;;25.43;53.56
80624;BME280;70269;44.768;9.600;2023-09-19T08:24:52;97275.63;;;25.33;51.02
80624;BME280;70269;44.768;9.600;2023-09-19T08:27:18;97274.25;;;25.58;50.37
80624;BME280;70269;44.768;9.600;2023-09-19T08:29:46;97278.16;;;25.79;50.67
80624;BME280;70269;44.768;9.600;2023-09-19T08:32:12;97283.41;;;25.89;50.23
80624;BME280;70269;44.768;9.600;2023-09-19T08:34:38;97274.28;;;25.89;49.97
80624;BME280;70269;44.768;9.600;2023-09-19T08:37:03;97279.25;;;26.00;48.84
80624;BME280;70269;44.768;9.600;2023-09-19T08:39:30;97274.59;;;26.09;50.21
80624;BME280;70269;44.768;9.600;2023-09-19T08:42:00;97270.28;;;26.26;50.50
80624;BME280;70269;44.768;9.600;2023-09-19T08:44:26;97283.91;;;26.44;50.05
80624;BME280;70269;44.768;9.600;2023-09-19T08:47:02;97278.41;;;26.62;48.84
80624;BME280;70269;44.768;9.600;2023-09-19T08:52:23;97285.28;;;26.64;49.29
80624;BME280;70269;44.768;9.600;2023-09-19T08:54:58;97275.66;;;26.62;47.24
80624;BME280;70269;44.768;9.600;2023-09-19T08:57:28;97278.28;;;26.67;47.31
80624;BME280;70269;44.768;9.600;2023-09-19T08:59:55;97284.19;;;26.82;47.09
80624;BME280;70269;44.768;9.600;2023-09-19T09:02:22;97283.03;;;26.75;46.50
80624;BME280;70269;44.768;9.600;2023-09-19T09:04:49;97290.91;;;26.19;48.50
80624;BME280;70269;44.768;9.600;2023-09-19T09:07:16;97293.03;;;25.69;54.24
80624;BME280;70269;44.768;9.600;2023-09-19T09:09:42;97293.44;;;26.07;55.65
80624;BME280;70269;44.768;9.600;2023-09-19T09:12:13;97287.81;;;25.32;55.30
80624;BME280;70269;44.768;9.600;2023-09-19T09:14:40;97285.09;;;25.18;56.87
80624;BME280;70269;44.768;9.600;2023-09-19T09:17:07;97288.13;;;24.81;57.15
80624;BME280;70269;44.768;9.600;2023-09-19T09:19:32;97299.56;;;24.47;59.73
80624;BME280;70269;44.768;9.600;2023-09-19T09:22:08;97292.38;;;24.18;61.18
80624;BME280;70269;44.768;9.600;2023-09-19T09:24:34;97299.59;;;24.14;61.55
80624;BME280;70269;44.768;9.600;2023-09-19T09:27:04;97298.72;;;24.33;60.48
80624;BME280;70269;44.768;9.600;2023-09-19T09:29:47;97308.25;;;24.08;61.69
80624;BME280;70269;44.768;9.600;2023-09-19T09:34:46;97298.75;;;24.60;61.40
80624;BME280;70269;44.768;9.600;2023-09-19T09:37:17;97304.06;;;24.43;62.41
80624;BME280;70269;44.768;9.600;2023-09-19T09:42:35;97301.06;;;24.26;62.73
80624;BME280;70269;44.768;9.600;2023-09-19T09:45:22;97301.97;;;23.89;64.04
80624;BME280;70269;44.768;9.600;2023-09-19T09:48:03;97299.28;;;24.16;64.22
80624;BME280;70269;44.768;9.600;2023-09-19T09:50:34;97295.66;;;23.88;65.01
80624;BME280;70269;44.768;9.600;2023-09-19T09:53:26;97304.38;;;24.09;64.48
80624;BME280;70269;44.768;9.600;2023-09-19T09:56:04;97305.56;;;23.89;64.40
80624;BME280;70269;44.768;9.600;2023-09-19T09:58:49;97296.25;;;24.17;64.26
80624;BME280;70269;44.768;9.600;2023-09-19T10:01:16;97293.22;;;24.19;63.38
80624;BME280;70269;44.768;9.600;2023-09-19T10:03:43;97295.72;;;23.83;64.34
80624;BME280;70269;44.768;9.600;2023-09-19T10:06:11;97295.31;;;23.76;64.72
80624;BME280;70269;44.768;9.600;2023-09-19T10:09:06;97295.88;;;23.92;64.36
80624;BME280;70269;44.768;9.600;2023-09-19T10:11:32;97294.84;;;23.88;64.24
80624;BME280;70269;44.768;9.600;2023-09-19T10:14:00;97302.31;;;23.87;64.63
80624;BME280;70269;44.768;9.600;2023-09-19T10:16:32;97311.31;;;24.39;65.12
80624;BME280;70269;44.768;9.600;2023-09-19T10:19:01;97308.97;;;24.13;63.86
80624;BME280;70269;44.768;9.600;2023-09-19T10:21:28;97304.28;;;24.00;63.73
80624;BME280;70269;44.768;9.600;2023-09-19T10:23:58;97315.31;;;24.14;63.59
80624;BME280;70269;44.768;9.600;2023-09-19T10:26:27;97315.81;;;24.35;63.77
80624;BME280;70269;44.768;9.600;2023-09-19T10:28:57;97312.97;;;24.07;62.90
80624;BME280;70269;44.768;9.600;2023-09-19T10:31:25;97316.09;;;23.87;63.72
80624;BME280;70269;44.768;9.600;2023-09-19T10:33:51;97326.56;;;24.04;64.34
80624;BME280;70269;44.768;9.600;2023-09-19T10:36:19;97326.41;;;23.95;63.91
80624;BME280;70269;44.768;9.600;2023-09-19T10:38:47;97323.59;;;24.00;63.30
80624;BME280;70269;44.768;9.600;2023-09-19T10:41:16;97323.59;;;24.00;64.26
80624;BME280;70269;44.768;9.600;2023-09-19T10:43:42;97328.50;;;24.03;64.50
80624;BME280;70269;44.768;9.600;2023-09-19T10:46:11;97329.34;;;23.85;63.10
80624;BME280;70269;44.768;9.600;2023-09-19T10:48:41;97318.38;;;23.99;64.17
80624;BME280;70269;44.768;9.600;2023-09-19T10:51:12;97318.81;;;24.06;64.62
80624;BME280;70269;44.768;9.600;2023-09-19T10:56:47;97307.75;;;23.73;64.35
80624;BME280;70269;44.768;9.600;2023-09-19T10:59:15;97313.19;;;24.11;63.04
80624;BME280;70269;44.768;9.600;2023-09-19T11:04:33;97307.41;;;24.26;62.28
80624;BME280;70269;44.768;9.600;2023-09-19T11:07:13;97314.72;;;24.17;63.24
80624;BME280;70269;44.768;9.600;2023-09-19T11:09:50;97306.13;;;24.37;62.54
80624;BME280;70269;44.768;9.600;2023-09-19T11:15:00;97309.03;;;24.27;62.92
80624;BME280;70269;44.768;9.600;2023-09-19T11:17:38;97310.28;;;24.35;63.46
80624;BME280;70269;44.768;9.600;2023-09-19T11:30:39;97296.28;;;24.31;62.94
80624;BME280;70269;44.768;9.600;2023-09-19T11:36:08;97299.03;;;24.45;61.90
80624;BME280;70269;44.768;9.600;2023-09-19T11:43:45;97291.06;;;24.71;60.91
80624;BME280;70269;44.768;9.600;2023-09-19T11:46:12;97282.06;;;24.79;60.27
80624;BME280;70269;44.768;9.600;2023-09-19T11:48:43;97290.66;;;24.77;61.71
80624;BME280;70269;44.768;9.600;2023-09-19T11:51:14;97288.59;;;24.69;60.80
80624;BME280;70269;44.768;9.600;2023-09-19T11:53:49;97285.84;;;24.69;61.03
80624;BME280;70269;44.768;9.600;2023-09-19T11:56:20;97289.34;;;24.75;61.16
80624;BME280;70269;44.768;9.600;2023-09-19T11:58:48;97286.38;;;24.71;60.73
80624;BME280;70269;44.768;9.600;2023-09-19T12:01:21;97288.44;;;24.93;60.33
80624;BME280;70269;44.768;9.600;2023-09-19T12:03:52;97279.91;;;25.03;59.81
80624;BME280;70269;44.768;9.600;2023-09-19T12:06:19;97274.50;;;24.84;59.80
80624;BME280;70269;44.768;9.600;2023-09-19T12:08:47;97280.63;;;24.81;60.35
80624;BME280;70269;44.768;9.600;2023-09-19T12:11:14;97266.81;;;24.81;60.20
80624;BME280;70269;44.768;9.600;2023-09-19T12:13:44;97272.25;;;24.73;60.17
80624;BME280;70269;44.768;9.600;2023-09-19T12:16:14;97262.44;;;24.80;60.25
80624;BME280;70269;44.768;9.600;2023-09-19T12:18:41;97258.97;;;24.75;60.33
80624;BME280;70269;44.768;9.600;2023-09-19T12:21:31;97252.59;;;25.02;59.86
80624;BME280;70269;44.768;9.600;2023-09-19T12:24:11;97246.44;;;25.05;59.40
80624;BME280;70269;44.768;9.600;2023-09-19T12:29:23;97255.75;;;25.09;58.51
80624;BME280;70269;44.768;9.600;2023-09-19T12:31:54;97249.94;;;24.96;58.55
80624;BME280;70269;44.768;9.600;2023-09-19T12:34:24;97256.69;;;25.04;58.80
80624;BME280;70269;44.768;9.600;2023-09-19T12:39:42;97250.16;;;24.73;60.03
80624;BME280;70269;44.768;9.600;2023-09-19T12:42:12;97242.81;;;24.68;60.30
80624;BME280;70269;44.768;9.600;2023-09-19T12:44:45;97242.19;;;24.57;60.01
80624;BME280;70269;44.768;9.600;2023-09-19T12:47:15;97241.28;;;24.48;60.22
80624;BME280;70269;44.768;9.600;2023-09-19T12:50:11;97246.91;;;24.43;60.65
80624;BME280;70269;44.768;9.600;2023-09-19T12:52:48;97240.75;;;24.46;60.17
80624;BME280;70269;44.768;9.600;2023-09-19T12:55:30;97236.25;;;24.50;60.94
80624;BME280;70269;44.768;9.600;2023-09-19T12:57:59;97244.53;;;24.50;61.00
80624;BME280;70269;44.768;9.600;2023-09-19T13:00:36;97242.22;;;24.44;61.22
80624;BME280;70269;44.768;9.600;2023-09-19T13:03:15;97238.00;;;24.33;61.03
80624;BME280;70269;44.768;9.600;2023-09-19T13:05:49;97237.50;;;24.31;60.74
80624;BME280;70269;44.768;9.600;2023-09-19T13:08:24;97236.78;;;24.39;60.51
80624;BME280;70269;44.768;9.600;2023-09-19T13:13:42;97237.94;;;24.38;60.88
80624;BME280;70269;44.768;9.600;2023-09-19T13:16:10;97243.00;;;24.44;60.69
80624;BME280;70269;44.768;9.600;2023-09-19T13:18:51;97236.88;;;24.34;60.65
80624;BME280;70269;44.768;9.600;2023-09-19T13:21:31;97248.84;;;24.29;60.57
80624;BME280;70269;44.768;9.600;2023-09-19T13:24:24;97237.50;;;24.31;60.72
80624;BME280;70269;44.768;9.600;2023-09-19T13:26:55;97239.44;;;24.30;60.83
80624;BME280;70269;44.768;9.600;2023-09-19T13:29:21;97234.94;;;24.34;60.36
80624;BME280;70269;44.768;9.600;2023-09-19T13:31:51;97245.06;;;24.39;60.61
80624;BME280;70269;44.768;9.600;2023-09-19T13:34:19;97242.72;;;24.46;60.38
80624;BME280;70269;44.768;9.600;2023-09-19T13:36:45;97242.91;;;24.63;59.49
80624;BME280;70269;44.768;9.600;2023-09-19T13:39:14;97252.00;;;24.77;60.99
80624;BME280;70269;44.768;9.600;2023-09-19T13:41:41;97255.34;;;24.88;58.95
80624;BME280;70269;44.768;9.600;2023-09-19T13:44:08;97239.19;;;24.95;58.28
80624;BME280;70269;44.768;9.600;2023-09-19T13:46:36;97237.47;;;24.99;58.64
80624;BME280;70269;44.768;9.600;2023-09-19T13:49:02;97237.88;;;24.92;58.89
80624;BME280;70269;44.768;9.600;2023-09-19T13:51:32;97241.03;;;25.00;58.93
80624;BME280;70269;44.768;9.600;2023-09-19T13:53:58;97241.03;;;25.00;58.48
80624;BME280;70269;44.768;9.600;2023-09-19T13:56:25;97231.81;;;25.04;59.03
80624;BME280;70269;44.768;9.600;2023-09-19T13:58:54;97235.59;;;25.08;58.25
80624;BME280;70269;44.768;9.600;2023-09-19T14:01:20;97225.16;;;25.05;57.50
80624;BME280;70269;44.768;9.600;2023-09-19T14:03:45;97232.47;;;25.23;57.76
80624;BME280;70269;44.768;9.600;2023-09-19T14:06:17;97237.78;;;25.20;56.55
80624;BME280;70269;44.768;9.600;2023-09-19T14:08:44;97229.44;;;25.33;57.73
80624;BME280;70269;44.768;9.600;2023-09-19T14:11:13;97218.22;;;25.52;57.25
80624;BME280;70269;44.768;9.600;2023-09-19T14:13:42;97212.00;;;25.47;55.13